createdAt,value
2022-12-08T00:01:14.951Z,101012.53
2022-12-08T00:03:42.317Z,101002.28
2022-12-08T00:06:53.534Z,100997.91
2022-12-08T00:09:30.928Z,100998.53
2022-12-08T00:12:08.689Z,100989.97
2022-12-08T00:14:40.854Z,100985.75
2022-12-08T00:17:10.156Z,100986.69
2022-12-08T00:19:39.001Z,100985.97
2022-12-08T00:22:06.929Z,100988.59
2022-12-08T00:24:35.715Z,100977.88
2022-12-08T00:27:02.689Z,100977.88
2022-12-08T00:29:29.155Z,100976.88
2022-12-08T00:31:55.933Z,100956.13
2022-12-08T00:34:22.673Z,100959.84
2022-12-08T00:36:49.039Z,100957.16
2022-12-08T00:39:17.241Z,100943.63
2022-12-08T00:42:02.521Z,100937.03
2022-12-08T00:44:28.927Z,100931.97
2022-12-08T00:46:55.840Z,100931.97
2022-12-08T00:49:22.699Z,100930.06
2022-12-08T00:51:49.448Z,100924.53
2022-12-08T00:54:16.122Z,100920.88
2022-12-08T00:56:42.546Z,100926.22
2022-12-08T00:59:09.048Z,100919.88
2022-12-08T01:01:36.069Z,100914.53
2022-12-08T01:04:10.654Z,100912.66
2022-12-08T01:06:38.402Z,100915.47
2022-12-08T01:09:06.599Z,100912.56
2022-12-08T01:11:33.504Z,100914.13
2022-12-08T01:13:59.917Z,100915.13
2022-12-08T01:16:29.172Z,100917.00
2022-12-08T01:18:57.610Z,100913.41
2022-12-08T01:21:24.376Z,100930.13
2022-12-08T01:23:51.024Z,100925.81
2022-12-08T01:26:18.967Z,100937.91
2022-12-08T01:28:46.513Z,100942.03
2022-12-08T01:31:15.964Z,100920.03
2022-12-08T01:33:42.844Z,100908.31
2022-12-08T01:36:22.045Z,100918.56
2022-12-08T01:38:49.077Z,100911.75
2022-12-08T01:41:17.866Z,100907.50
2022-12-08T01:43:50.213Z,100908.34
2022-12-08T01:46:16.639Z,100908.34
2022-12-08T01:48:43.358Z,100912.66
2022-12-08T01:51:10.289Z,100918.78
2022-12-08T01:53:36.834Z,100915.34
2022-12-08T01:56:09.392Z,100896.78
2022-12-08T01:58:39.802Z,100895.16
2022-12-08T02:01:07.665Z,100893.53
2022-12-08T02:03:49.863Z,100887.31
2022-12-08T02:06:18.514Z,100887.31
2022-12-08T02:08:45.960Z,100889.00
2022-12-08T02:11:13.116Z,100888.00
2022-12-08T02:13:41.724Z,100883.44
2022-12-08T02:16:44.979Z,100895.53
2022-12-08T02:19:40.863Z,100885.19
2022-12-08T02:22:07.182Z,100886.56
2022-12-08T02:25:03.504Z,100879.91
2022-12-08T02:28:12.980Z,100873.41
2022-12-08T02:31:23.884Z,100884.09
2022-12-08T02:34:00.771Z,100874.91
2022-12-08T02:36:38.120Z,100867.56
2022-12-08T02:39:28.097Z,100871.16
2022-12-08T02:42:06.066Z,100863.00
2022-12-08T02:44:39.603Z,100856.03
2022-12-08T02:47:12.829Z,100849.66
2022-12-08T02:49:39.395Z,100850.09
2022-12-08T02:52:29.304Z,100846.56
2022-12-08T02:55:00.534Z,100847.19
2022-12-08T02:57:45.617Z,100846.38
2022-12-08T03:00:19.937Z,100863.19
2022-12-08T03:03:14.164Z,100862.44
2022-12-08T03:06:06.620Z,100845.34
2022-12-08T03:08:32.934Z,100838.50
2022-12-08T03:11:11.510Z,100838.38
2022-12-08T03:13:46.199Z,100838.97
2022-12-08T03:16:14.664Z,100848.84
2022-12-08T03:18:45.573Z,100837.41
2022-12-08T03:21:15.250Z,100840.78
2022-12-08T03:23:44.560Z,100841.59
2022-12-08T03:26:30.651Z,100847.88
2022-12-08T03:28:57.932Z,100846.25
2022-12-08T03:31:28.956Z,100851.69
2022-12-08T03:33:58.445Z,100839.41
2022-12-08T03:36:25.923Z,100836.88
2022-12-08T03:38:54.173Z,100839.78
2022-12-08T03:41:22.596Z,100825.72
2022-12-08T03:43:52.544Z,100826.75
2022-12-08T03:48:46.568Z,100819.25
2022-12-08T03:51:13.182Z,100819.47
2022-12-08T03:53:39.695Z,100814.34
2022-12-08T03:56:15.765Z,100810.88
2022-12-08T03:58:43.070Z,100810.78
2022-12-08T04:01:09.532Z,100810.00
2022-12-08T04:03:35.877Z,100810.97
2022-12-08T04:06:02.278Z,100806.66
2022-12-08T04:08:28.719Z,100798.25
2022-12-08T04:10:55.229Z,100807.16
2022-12-08T04:13:21.617Z,100797.34
2022-12-08T04:15:48.855Z,100799.41
2022-12-08T04:18:15.993Z,100798.72
2022-12-08T04:20:43.981Z,100794.47
2022-12-08T04:23:12.527Z,100798.16
2022-12-08T04:25:39.500Z,100793.06
2022-12-08T04:28:06.136Z,100794.22
2022-12-08T04:30:32.772Z,100800.56
2022-12-08T04:32:59.263Z,100802.50
2022-12-08T04:35:25.713Z,100797.09
2022-12-08T04:37:52.174Z,100797.91
2022-12-08T04:40:18.856Z,100800.66
2022-12-08T04:42:45.274Z,100790.84
2022-12-08T04:45:11.980Z,100795.25
2022-12-08T04:47:38.476Z,100793.50
2022-12-08T04:50:06.684Z,100792.19
2022-12-08T04:52:33.204Z,100786.75
2022-12-08T04:54:59.655Z,100786.88
2022-12-08T04:57:26.205Z,100783.75
2022-12-08T04:59:52.891Z,100784.59
2022-12-08T05:02:19.656Z,100776.66
2022-12-08T05:04:46.292Z,100781.00
2022-12-08T05:07:12.724Z,100781.00
2022-12-08T05:09:39.139Z,100785.50
2022-12-08T05:12:05.964Z,100780.59
2022-12-08T05:14:32.468Z,100778.03
2022-12-08T05:16:58.836Z,100778.34
2022-12-08T05:19:25.547Z,100773.63
2022-12-08T05:21:51.928Z,100770.66
2022-12-08T05:24:18.379Z,100766.09
2022-12-08T05:26:44.763Z,100768.09
2022-12-08T05:29:11.107Z,100761.03
2022-12-08T05:31:37.526Z,100768.00
2022-12-08T05:34:03.940Z,100769.09
2022-12-08T05:36:30.434Z,100779.91
2022-12-08T05:38:57.799Z,100780.34
2022-12-08T05:41:24.846Z,100777.88
2022-12-08T05:43:51.268Z,100778.69
2022-12-08T05:46:18.064Z,100775.91
2022-12-08T05:48:44.564Z,100757.63
2022-12-08T05:51:20.412Z,100765.97
2022-12-08T05:53:48.048Z,100764.34
2022-12-08T05:56:15.210Z,100763.69
2022-12-08T05:58:41.640Z,100763.97
2022-12-08T06:01:08.194Z,100762.34
2022-12-08T06:03:34.620Z,100765.25
2022-12-08T06:06:01.321Z,100757.63
2022-12-08T06:08:27.922Z,100753.34
2022-12-08T06:10:54.388Z,100756.22
2022-12-08T06:13:20.840Z,100758.19
2022-12-08T06:15:47.261Z,100764.53
2022-12-08T06:18:13.651Z,100767.31
2022-12-08T06:20:40.048Z,100753.25
2022-12-08T06:23:06.582Z,100749.78
2022-12-08T06:25:32.963Z,100754.25
2022-12-08T06:27:59.404Z,100751.63
2022-12-08T06:30:28.420Z,100751.66
2022-12-08T06:32:54.871Z,100747.44
2022-12-08T06:35:21.289Z,100751.97
2022-12-08T06:37:47.743Z,100752.88
2022-12-08T06:40:14.415Z,100751.16
2022-12-08T06:42:49.617Z,100757.31
2022-12-08T06:45:17.870Z,100767.94
2022-12-08T06:47:44.493Z,100760.00
2022-12-08T06:50:11.901Z,100766.19
2022-12-08T06:52:47.221Z,100765.25
2022-12-08T06:55:29.243Z,100759.03
2022-12-08T06:58:00.274Z,100766.00
2022-12-08T07:00:26.684Z,100772.31
2022-12-08T07:02:53.095Z,100775.13
2022-12-08T07:05:19.611Z,100772.56
2022-12-08T07:07:46.094Z,100773.50
2022-12-08T07:10:12.480Z,100770.97
2022-12-08T07:12:38.837Z,100771.47
2022-12-08T07:15:05.793Z,100783.81
2022-12-08T07:17:32.184Z,100779.31
2022-12-08T07:19:58.551Z,100776.00
2022-12-08T07:22:24.987Z,100782.34
2022-12-08T07:24:51.395Z,100779.81
2022-12-08T07:27:17.822Z,100775.28
2022-12-08T07:29:44.228Z,100776.63
2022-12-08T07:32:10.677Z,100775.81
2022-12-08T07:34:37.033Z,100778.63
2022-12-08T07:37:03.500Z,100776.75
2022-12-08T07:39:29.972Z,100775.19
2022-12-08T07:41:56.354Z,100766.53
2022-12-08T07:44:22.824Z,100769.06
2022-12-08T07:46:49.251Z,100776.19
2022-12-08T07:49:15.622Z,100776.13
2022-12-08T07:51:42.065Z,100775.94
2022-12-08T07:54:12.392Z,100783.97
2022-12-08T07:56:38.845Z,100791.22
2022-12-08T07:59:05.259Z,100786.72
2022-12-08T08:01:33.954Z,100770.63
2022-12-08T08:04:04.213Z,100762.41
2022-12-08T08:06:32.032Z,100767.69
2022-12-08T08:08:58.483Z,100766.97
2022-12-08T08:11:25.007Z,100760.81
2022-12-08T08:13:51.923Z,100768.84
2022-12-08T08:16:19.597Z,100761.78
2022-12-08T08:18:50.754Z,100769.63
2022-12-08T08:24:05.668Z,100770.47
2022-12-08T08:26:32.066Z,100772.44
2022-12-08T08:28:58.414Z,100773.66
2022-12-08T08:31:25.907Z,100772.13
2022-12-08T08:33:53.011Z,100768.66
2022-12-08T08:36:19.453Z,100774.16
2022-12-08T08:38:45.851Z,100760.06
2022-12-08T08:41:12.243Z,100756.03
2022-12-08T08:43:39.041Z,100759.78
2022-12-08T08:46:06.407Z,100764.53
2022-12-08T08:48:33.030Z,100766.47
2022-12-08T08:51:06.391Z,100765.66
2022-12-08T08:53:32.846Z,100759.38
2022-12-08T08:56:01.570Z,100762.69
2022-12-08T08:58:29.104Z,100760.97
2022-12-08T09:00:55.427Z,100757.19
2022-12-08T09:03:21.832Z,100756.09
2022-12-08T09:05:48.399Z,100756.66
2022-12-08T09:08:14.942Z,100759.66
2022-12-08T09:10:41.922Z,100758.38
2022-12-08T09:13:08.603Z,100758.88
2022-12-08T09:15:35.049Z,100766.63
2022-12-08T09:18:01.496Z,100766.28
2022-12-08T09:20:27.933Z,100767.66
2022-12-08T09:22:54.372Z,100766.44
2022-12-08T09:25:20.747Z,100774.16
2022-12-08T09:27:47.097Z,100770.44
2022-12-08T09:30:13.704Z,100779.34
2022-12-08T09:32:40.490Z,100783.84
2022-12-08T09:35:07.382Z,100790.16
2022-12-08T09:37:33.814Z,100791.78
2022-12-08T09:40:00.292Z,100792.94
2022-12-08T09:42:47.513Z,100792.03
2022-12-08T09:45:16.955Z,100792.94
2022-12-08T09:48:14.993Z,100791.22
2022-12-08T09:50:49.713Z,100784.84
2022-12-08T09:53:21.454Z,100781.22
2022-12-08T09:55:55.768Z,100780.78
2022-12-08T09:58:35.332Z,100780.69
2022-12-08T10:01:02.082Z,100784.69
2022-12-08T10:03:30.551Z,100774.28
2022-12-08T10:06:20.020Z,100778.66
2022-12-08T10:09:02.479Z,100774.22
2022-12-08T10:11:50.080Z,100774.44
2022-12-08T10:14:22.755Z,100768.31
2022-12-08T10:16:52.298Z,100759.28
2022-12-08T10:19:22.455Z,100757.81
2022-12-08T10:21:49.511Z,100750.38
2022-12-08T10:24:26.606Z,100745.53
2022-12-08T10:26:54.285Z,100735.72
2022-12-08T10:29:20.760Z,100729.28
2022-12-08T10:31:47.318Z,100738.66
2022-12-08T10:34:17.573Z,100732.81
2022-12-08T10:36:53.217Z,100721.69
2022-12-08T10:39:36.794Z,100729.00
2022-12-08T10:42:15.520Z,100727.41
2022-12-08T10:45:09.284Z,100725.50
2022-12-08T10:47:42.494Z,100717.09
2022-12-08T10:50:20.225Z,100705.81
2022-12-08T10:52:55.601Z,100713.16
2022-12-08T10:55:22.201Z,100702.84
2022-12-08T10:57:51.517Z,100707.72
2022-12-08T11:00:21.526Z,100714.09
2022-12-08T11:02:59.089Z,100710.69
2022-12-08T11:05:33.432Z,100719.03
2022-12-08T11:08:00.459Z,100727.25
2022-12-08T11:10:43.199Z,100742.31
2022-12-08T11:13:26.535Z,100741.41
2022-12-08T11:15:55.330Z,100746.06
2022-12-08T11:18:38.525Z,100732.44
2022-12-08T11:21:15.754Z,100729.44
2022-12-08T11:23:46.590Z,100716.56
2022-12-08T11:26:24.414Z,100716.31
2022-12-08T11:28:50.841Z,100703.13
2022-12-08T11:31:34.685Z,100705.03
2022-12-08T11:34:03.049Z,100702.38
2022-12-08T11:36:33.396Z,100706.72
2022-12-08T11:39:02.687Z,100704.06
2022-12-08T11:41:36.588Z,100711.97
2022-12-08T11:44:20.901Z,100714.78
2022-12-08T11:46:56.561Z,100716.59
2022-12-08T11:49:31.328Z,100712.34
2022-12-08T11:52:05.770Z,100715.97
2022-12-08T11:54:36.026Z,100718.75
2022-12-08T11:57:05.873Z,100716.06
2022-12-08T11:59:39.566Z,100704.56
2022-12-08T12:02:13.509Z,100702.03
2022-12-08T12:05:06.335Z,100692.38
2022-12-08T12:08:10.387Z,100702.38
2022-12-08T12:10:45.413Z,100703.47
2022-12-08T12:13:17.904Z,100700.97
2022-12-08T12:16:07.759Z,100706.41
2022-12-08T12:18:46.315Z,100698.75
2022-12-08T12:21:18.381Z,100700.91
2022-12-08T12:24:07.648Z,100704.19
2022-12-08T12:26:38.097Z,100694.25
2022-12-08T12:29:16.032Z,100694.03
2022-12-08T12:31:51.304Z,100686.03
2022-12-08T12:34:22.505Z,100674.56
2022-12-08T12:37:06.325Z,100674.81
2022-12-08T12:39:57.766Z,100668.44
2022-12-08T12:42:41.259Z,100674.84
2022-12-08T12:45:16.549Z,100672.31
2022-12-08T12:47:56.288Z,100674.44
2022-12-08T12:51:00.428Z,100673.53
2022-12-08T12:53:26.831Z,100676.13
2022-12-08T12:55:54.959Z,100682.72
2022-12-08T12:58:30.265Z,100686.22
2022-12-08T13:01:12.511Z,100675.41
2022-12-08T13:04:08.559Z,100671.63
2022-12-08T13:06:48.783Z,100672.19
2022-12-08T13:09:35.030Z,100660.03
2022-12-08T13:12:10.501Z,100661.84
2022-12-08T13:14:46.853Z,100662.50
2022-12-08T13:17:17.610Z,100654.59
2022-12-08T13:19:51.671Z,100648.16
2022-12-08T13:23:09.702Z,100638.25
2022-12-08T13:25:38.808Z,100638.16
2022-12-08T13:28:25.932Z,100635.34
2022-12-08T13:30:56.130Z,100638.44
2022-12-08T13:33:26.882Z,100638.72
2022-12-08T13:36:17.150Z,100639.78
2022-12-08T13:38:46.712Z,100627.44
2022-12-08T13:41:18.798Z,100629.25
2022-12-08T13:44:24.862Z,100629.34
2022-12-08T13:47:31.743Z,100632.16
2022-12-08T13:58:37.008Z,100626.88
2022-12-08T14:01:18.296Z,100619.84
2022-12-08T14:04:33.807Z,100630.53
2022-12-08T14:06:49.847Z,100621.97
2022-12-08T14:09:20.811Z,100629.41
2022-12-08T14:12:03.401Z,100626.13
2022-12-08T14:17:28.971Z,100624.78
2022-12-08T14:20:06.433Z,100631.19
2022-12-08T14:22:35.214Z,100629.50
2022-12-08T14:25:01.960Z,100634.66
2022-12-08T14:27:33.795Z,100638.94
2022-12-08T14:30:02.282Z,100637.94
2022-12-08T14:32:28.845Z,100642.97
2022-12-08T14:34:56.647Z,100644.63
2022-12-08T14:37:25.848Z,100647.19
2022-12-08T14:39:53.728Z,100654.16
2022-12-08T14:42:25.187Z,100645.19
2022-12-08T14:45:01.075Z,100646.88
2022-12-08T14:47:32.300Z,100647.69
2022-12-08T14:49:58.835Z,100636.13
2022-12-08T14:52:26.521Z,100644.97
2022-12-08T14:54:54.397Z,100637.03
2022-12-08T14:57:21.186Z,100643.34
2022-12-08T14:59:48.693Z,100642.56
2022-12-08T15:02:25.152Z,100642.78
2022-12-08T15:05:02.956Z,100641.13
2022-12-08T15:07:34.347Z,100643.97
2022-12-08T15:10:21.182Z,100641.31
2022-12-08T15:12:58.271Z,100651.09
2022-12-08T15:15:25.303Z,100648.44
2022-12-08T15:18:00.676Z,100649.47
2022-12-08T15:20:44.092Z,100653.03
2022-12-08T15:23:24.360Z,100652.28
2022-12-08T15:25:51.099Z,100655.88
2022-12-08T15:28:21.272Z,100644.47
2022-12-08T15:30:49.881Z,100644.75
2022-12-08T15:33:16.462Z,100642.38
2022-12-08T15:35:43.772Z,100640.97
2022-12-08T15:38:24.795Z,100643.94
2022-12-08T15:40:52.253Z,100648.59
2022-12-08T15:43:21.143Z,100653.25
2022-12-08T15:45:58.612Z,100654.13
2022-12-08T15:48:27.505Z,100667.22
2022-12-08T15:50:54.514Z,100671.53
2022-12-08T15:53:21.029Z,100667.66
2022-12-08T15:56:10.779Z,100672.59
2022-12-08T16:01:22.407Z,100672.53
2022-12-08T16:09:30.257Z,100672.47
2022-12-08T16:12:15.490Z,100676.81
2022-12-08T16:17:31.065Z,100677.59
2022-12-08T16:19:57.829Z,100688.13
2022-12-08T16:22:52.860Z,100684.56
2022-12-08T16:25:19.299Z,100687.22
2022-12-08T16:28:23.178Z,100681.09
2022-12-08T16:30:35.455Z,100680.28
2022-12-08T16:33:01.953Z,100681.28
2022-12-08T16:35:28.678Z,100681.34
2022-12-08T16:37:55.146Z,100684.13
2022-12-08T16:40:21.651Z,100682.53
2022-12-08T16:42:49.966Z,100679.25
2022-12-08T16:45:27.876Z,100684.06
2022-12-08T16:47:59.706Z,100680.97
2022-12-08T16:50:30.307Z,100685.75
2022-12-08T16:53:02.547Z,100687.84
2022-12-08T16:55:29.005Z,100692.41
2022-12-08T16:57:56.042Z,100691.03
2022-12-08T17:00:25.114Z,100687.03
2022-12-08T17:02:52.447Z,100690.03
2022-12-08T17:05:21.060Z,100698.31
2022-12-08T17:07:49.441Z,100696.94
2022-12-08T17:10:19.293Z,100696.31
2022-12-08T17:12:46.503Z,100700.81
2022-12-08T17:15:16.486Z,100703.50
2022-12-08T17:17:43.044Z,100703.59
2022-12-08T17:20:13.534Z,100703.03
2022-12-08T17:22:39.939Z,100705.91
2022-12-08T17:25:07.190Z,100704.53
2022-12-08T17:27:33.621Z,100701.22
2022-12-08T17:30:00.058Z,100704.91
2022-12-08T17:32:26.922Z,100710.16
2022-12-08T17:34:53.805Z,100704.97
2022-12-08T17:37:20.278Z,100700.69
2022-12-08T17:39:46.660Z,100701.78
2022-12-08T17:42:13.143Z,100708.13
2022-12-08T17:44:39.633Z,100716.09
2022-12-08T17:47:06.062Z,100709.19
2022-12-08T17:49:35.546Z,100712.84
2022-12-08T17:52:05.303Z,100714.78
2022-12-08T17:54:31.752Z,100706.97
2022-12-08T17:56:59.076Z,100700.00
2022-12-08T17:59:27.337Z,100701.03
2022-12-08T18:01:55.431Z,100702.81
2022-12-08T18:04:22.220Z,100702.06
2022-12-08T18:06:48.697Z,100700.38
2022-12-08T18:09:15.475Z,100703.97
2022-12-08T18:11:42.733Z,100694.34
2022-12-08T18:14:10.839Z,100698.78
2022-12-08T18:16:43.134Z,100711.22
2022-12-08T18:19:12.151Z,100709.47
2022-12-08T18:21:38.874Z,100707.81
2022-12-08T18:24:05.941Z,100708.78
2022-12-08T18:26:32.775Z,100699.06
2022-12-08T18:28:59.952Z,100708.88
2022-12-08T18:31:26.917Z,100712.59
2022-12-08T18:33:53.699Z,100708.28
2022-12-08T18:36:23.634Z,100713.59
2022-12-08T18:38:50.896Z,100709.31
2022-12-08T18:41:20.711Z,100707.63
2022-12-08T18:43:47.206Z,100709.44
2022-12-08T18:46:16.039Z,100718.13
2022-12-08T18:48:46.138Z,100720.78
2022-12-08T18:51:18.142Z,100718.22
2022-12-08T18:53:45.132Z,100724.41
2022-12-08T18:56:22.506Z,100722.47
2022-12-08T18:58:49.172Z,100725.16
2022-12-08T19:01:15.848Z,100728.81
2022-12-08T19:03:48.911Z,100720.91
2022-12-08T19:06:24.858Z,100728.91
2022-12-08T19:08:51.336Z,100728.81
2022-12-08T19:11:25.754Z,100729.66
2022-12-08T19:13:53.555Z,100734.09
2022-12-08T19:16:20.376Z,100727.84
2022-12-08T19:18:46.834Z,100724.16
2022-12-08T19:21:13.527Z,100726.72
2022-12-08T19:23:40.766Z,100723.84
2022-12-08T19:26:07.942Z,100724.78
2022-12-08T19:28:35.315Z,100723.03
2022-12-08T19:31:10.020Z,100723.09
2022-12-08T19:33:37.643Z,100729.38
2022-12-08T19:36:10.535Z,100727.75
2022-12-08T19:38:56.963Z,100726.94
2022-12-08T19:41:42.190Z,100723.31
2022-12-08T19:44:39.919Z,100727.63
2022-12-08T19:47:06.557Z,100730.31
2022-12-08T19:49:33.145Z,100733.88
2022-12-08T19:52:00.095Z,100734.84
2022-12-08T19:54:26.879Z,100738.44
2022-12-08T19:56:53.428Z,100734.94
2022-12-08T19:59:20.356Z,100734.13
2022-12-08T20:01:48.323Z,100741.13
2022-12-08T20:04:15.726Z,100742.91
2022-12-08T20:06:42.775Z,100741.22
2022-12-08T20:09:10.313Z,100735.13
2022-12-08T20:11:37.586Z,100735.25
2022-12-08T20:14:04.282Z,100736.19
2022-12-08T20:16:30.916Z,100745.94
2022-12-08T20:18:57.751Z,100742.44
2022-12-08T20:21:24.172Z,100739.81
2022-12-08T20:23:50.616Z,100751.31
2022-12-08T20:26:19.575Z,100751.25
2022-12-08T20:28:46.019Z,100749.53
2022-12-08T20:31:18.530Z,100748.63
2022-12-08T20:33:45.098Z,100748.69
2022-12-08T20:36:15.942Z,100749.53
2022-12-08T20:38:42.411Z,100739.88
2022-12-08T20:41:09.842Z,100753.97
2022-12-08T20:43:36.370Z,100753.13
2022-12-08T20:46:11.478Z,100749.66
2022-12-08T20:48:38.345Z,100746.16
2022-12-08T20:51:05.125Z,100755.94
2022-12-08T20:53:31.711Z,100748.13
2022-12-08T20:55:58.339Z,100756.13
2022-12-08T20:58:24.730Z,100756.13
2022-12-08T21:00:51.222Z,100759.63
2022-12-08T21:03:18.769Z,100767.56
2022-12-08T21:05:50.415Z,100766.75
2022-12-08T21:08:17.827Z,100773.78
2022-12-08T21:10:44.513Z,100773.88
2022-12-08T21:13:11.105Z,100777.44
2022-12-08T21:15:37.882Z,100778.34
2022-12-08T21:18:04.785Z,100780.06
2022-12-08T21:20:31.291Z,100787.16
2022-12-08T21:22:57.693Z,100788.00
2022-12-08T21:25:24.333Z,100788.78
2022-12-08T21:27:50.814Z,100787.84
2022-12-08T21:30:17.512Z,100792.13
2022-12-08T21:32:44.137Z,100784.03
2022-12-08T21:35:10.845Z,100789.22
2022-12-08T21:37:37.429Z,100783.75
2022-12-08T21:40:05.344Z,100787.16
2022-12-08T21:42:43.909Z,100783.56
2022-12-08T21:45:19.089Z,100787.03
2022-12-08T21:47:47.614Z,100777.22
2022-12-08T21:50:15.383Z,100780.63
2022-12-08T21:52:44.369Z,100781.38
2022-12-08T21:55:12.551Z,100790.06
2022-12-08T21:57:39.603Z,100778.50
2022-12-08T22:00:08.575Z,100791.66
2022-12-08T22:02:35.326Z,100789.06
2022-12-08T22:05:02.163Z,100792.53
2022-12-08T22:07:28.727Z,100788.00
2022-12-08T22:09:55.598Z,100791.31
2022-12-08T22:12:22.330Z,100782.28
2022-12-08T22:14:50.656Z,100786.69
2022-12-08T22:17:17.490Z,100784.03
2022-12-08T22:19:44.058Z,100789.28
2022-12-08T22:22:10.599Z,100779.53
2022-12-08T22:24:37.065Z,100785.72
2022-12-08T22:27:03.978Z,100790.06
2022-12-08T22:29:30.417Z,100790.09
2022-12-08T22:31:56.806Z,100784.13
2022-12-08T22:34:23.408Z,100797.53
2022-12-08T22:36:49.771Z,100786.06
2022-12-08T22:39:16.185Z,100788.66
2022-12-08T22:41:42.663Z,100783.56
2022-12-08T22:44:09.558Z,100781.00
2022-12-08T22:46:36.080Z,100788.16
2022-12-08T22:49:02.656Z,100772.44
2022-12-08T22:51:29.004Z,100770.69
2022-12-08T22:53:55.486Z,100766.22
2022-12-08T22:56:21.960Z,100770.78
2022-12-08T22:58:48.431Z,100766.44
2022-12-08T23:01:27.806Z,100763.91
2022-12-08T23:03:54.408Z,100771.09
2022-12-08T23:06:21.103Z,100768.47
2022-12-08T23:08:47.850Z,100757.97
2022-12-08T23:11:14.615Z,100762.47
2022-12-08T23:13:41.398Z,100763.31
2022-12-08T23:16:08.928Z,100761.63
2022-12-08T23:18:35.800Z,100757.28
2022-12-08T23:21:07.345Z,100752.03
2022-12-08T23:23:33.799Z,100752.88
2022-12-08T23:26:00.320Z,100751.91
2022-12-08T23:28:27.165Z,100749.28
2022-12-08T23:30:53.980Z,100755.53
2022-12-08T23:33:20.614Z,100747.75
2022-12-08T23:35:56.588Z,100740.78
2022-12-08T23:38:23.103Z,100743.50
2022-12-08T23:40:49.525Z,100742.63
2022-12-08T23:43:15.933Z,100739.16
2022-12-08T23:45:42.414Z,100745.38
2022-12-08T23:48:08.974Z,100746.25
2022-12-08T23:50:35.556Z,100746.28
2022-12-08T23:53:01.994Z,100745.47
2022-12-08T23:55:28.397Z,100741.09
2022-12-08T23:57:54.888Z,100739.41
